sensor_id;sensor_type;location;lat;lon;timestamp;P1;durP1;ratioP1;P2;durP2;ratioP2
36359;SDS011;22388;52.432;20.662;2023-02-28T00:00:17;35.70;;;15.82;;
36359;SDS011;22388;52.432;20.662;2023-02-28T00:02:44;33.80;;;14.85;;
36359;SDS011;22388;52.432;20.662;2023-02-28T00:05:11;37.17;;;15.07;;
36359;SDS011;22388;52.432;20.662;2023-02-28T00:07:38;35.97;;;15.63;;
36359;SDS011;22388;52.432;20.662;2023-02-28T00:10:04;31.17;;;14.75;;
36359;SDS011;22388;52.432;20.662;2023-02-28T00:12:32;37.97;;;15.30;;
36359;SDS011;22388;52.432;20.662;2023-02-28T00:14:59;37.50;;;16.27;;
36359;SDS011;22388;52.432;20.662;2023-02-28T00:17:24;33.95;;;16.10;;
36359;SDS011;22388;52.432;20.662;2023-02-28T00:19:50;36.97;;;16.73;;
36359;SDS011;22388;52.432;20.662;2023-02-28T00:22:16;33.83;;;15.35;;
36359;SDS011;22388;52.432;20.662;2023-02-28T00:24:43;38.50;;;15.82;;
36359;SDS011;22388;52.432;20.662;2023-02-28T00:27:10;30.98;;;14.73;;
36359;SDS011;22388;52.432;20.662;2023-02-28T00:29:36;37.35;;;15.23;;
36359;SDS011;22388;52.432;20.662;2023-02-28T00:32:02;35.50;;;15.80;;
36359;SDS011;22388;52.432;20.662;2023-02-28T00:34:28;29.95;;;14.73;;
36359;SDS011;22388;52.432;20.662;2023-02-28T00:36:54;37.67;;;15.88;;
36359;SDS011;22388;52.432;20.662;2023-02-28T00:39:19;34.72;;;15.50;;
36359;SDS011;22388;52.432;20.662;2023-02-28T00:41:45;39.55;;;16.67;;
36359;SDS011;22388;52.432;20.662;2023-02-28T00:44:10;35.13;;;15.60;;
36359;SDS011;22388;52.432;20.662;2023-02-28T00:46:36;40.97;;;16.25;;
36359;SDS011;22388;52.432;20.662;2023-02-28T00:49:02;38.75;;;17.08;;
36359;SDS011;22388;52.432;20.662;2023-02-28T00:51:27;32.95;;;15.43;;
36359;SDS011;22388;52.432;20.662;2023-02-28T00:53:53;34.97;;;16.60;;
36359;SDS011;22388;52.432;20.662;2023-02-28T00:56:19;37.13;;;16.67;;
36359;SDS011;22388;52.432;20.662;2023-02-28T00:58:45;35.38;;;16.85;;
36359;SDS011;22388;52.432;20.662;2023-02-28T01:01:14;35.95;;;16.35;;
36359;SDS011;22388;52.432;20.662;2023-02-28T01:03:39;33.08;;;15.27;;
36359;SDS011;22388;52.432;20.662;2023-02-28T01:06:05;33.47;;;15.73;;
36359;SDS011;22388;52.432;20.662;2023-02-28T01:08:31;37.40;;;16.27;;
36359;SDS011;22388;52.432;20.662;2023-02-28T01:10:56;35.92;;;16.48;;
36359;SDS011;22388;52.432;20.662;2023-02-28T01:13:22;40.97;;;17.27;;
36359;SDS011;22388;52.432;20.662;2023-02-28T01:15:52;36.03;;;16.70;;
36359;SDS011;22388;52.432;20.662;2023-02-28T01:18:20;33.58;;;15.75;;
36359;SDS011;22388;52.432;20.662;2023-02-28T01:20:46;36.78;;;16.02;;
36359;SDS011;22388;52.432;20.662;2023-02-28T01:23:12;33.22;;;15.88;;
36359;SDS011;22388;52.432;20.662;2023-02-28T01:25:37;35.40;;;16.55;;
36359;SDS011;22388;52.432;20.662;2023-02-28T01:28:03;34.58;;;16.15;;
36359;SDS011;22388;52.432;20.662;2023-02-28T01:30:30;37.75;;;16.40;;
36359;SDS011;22388;52.432;20.662;2023-02-28T01:32:56;36.08;;;16.65;;
36359;SDS011;22388;52.432;20.662;2023-02-28T01:35:22;36.45;;;16.67;;
36359;SDS011;22388;52.432;20.662;2023-02-28T01:37:47;34.40;;;16.33;;
36359;SDS011;22388;52.432;20.662;2023-02-28T01:40:13;35.63;;;15.85;;
36359;SDS011;22388;52.432;20.662;2023-02-28T01:42:38;39.03;;;16.15;;
36359;SDS011;22388;52.432;20.662;2023-02-28T01:47:42;37.95;;;16.08;;
36359;SDS011;22388;52.432;20.662;2023-02-28T01:50:09;34.08;;;15.85;;
36359;SDS011;22388;52.432;20.662;2023-02-28T01:52:40;37.40;;;16.23;;
36359;SDS011;22388;52.432;20.662;2023-02-28T01:55:06;37.95;;;17.42;;
36359;SDS011;22388;52.432;20.662;2023-02-28T01:57:36;35.30;;;17.42;;
36359;SDS011;22388;52.432;20.662;2023-02-28T02:02:32;37.63;;;16.92;;
36359;SDS011;22388;52.432;20.662;2023-02-28T02:05:00;35.78;;;15.52;;
36359;SDS011;22388;52.432;20.662;2023-02-28T02:07:34;33.60;;;16.83;;
36359;SDS011;22388;52.432;20.662;2023-02-28T02:10:35;35.97;;;17.35;;
36359;SDS011;22388;52.432;20.662;2023-02-28T02:16:00;36.33;;;17.13;;
36359;SDS011;22388;52.432;20.662;2023-02-28T02:18:43;34.10;;;16.90;;
36359;SDS011;22388;52.432;20.662;2023-02-28T02:29:53;32.85;;;17.13;;
36359;SDS011;22388;52.432;20.662;2023-02-28T02:37:54;40.22;;;19.13;;
36359;SDS011;22388;52.432;20.662;2023-02-28T02:40:26;37.80;;;17.75;;
36359;SDS011;22388;52.432;20.662;2023-02-28T02:43:04;36.20;;;17.50;;
36359;SDS011;22388;52.432;20.662;2023-02-28T02:48:07;37.85;;;16.42;;
36359;SDS011;22388;52.432;20.662;2023-02-28T02:50:44;37.00;;;17.33;;
36359;SDS011;22388;52.432;20.662;2023-02-28T02:53:11;40.83;;;17.15;;
36359;SDS011;22388;52.432;20.662;2023-02-28T02:55:39;38.85;;;16.67;;
36359;SDS011;22388;52.432;20.662;2023-02-28T02:58:10;36.15;;;17.92;;
36359;SDS011;22388;52.432;20.662;2023-02-28T03:00:41;36.38;;;16.77;;
36359;SDS011;22388;52.432;20.662;2023-02-28T03:03:08;36.90;;;16.95;;
36359;SDS011;22388;52.432;20.662;2023-02-28T03:05:48;31.73;;;16.25;;
36359;SDS011;22388;52.432;20.662;2023-02-28T03:08:14;33.63;;;15.52;;
36359;SDS011;22388;52.432;20.662;2023-02-28T03:10:43;33.20;;;16.20;;
36359;SDS011;22388;52.432;20.662;2023-02-28T03:13:30;39.05;;;17.25;;
36359;SDS011;22388;52.432;20.662;2023-02-28T03:16:18;35.35;;;15.73;;
36359;SDS011;22388;52.432;20.662;2023-02-28T03:19:29;32.63;;;15.32;;
36359;SDS011;22388;52.432;20.662;2023-02-28T03:27:27;33.53;;;16.08;;
36359;SDS011;22388;52.432;20.662;2023-02-28T03:30:00;24.30;;;12.43;;
36359;SDS011;22388;52.432;20.662;2023-02-28T03:32:55;33.97;;;15.75;;
36359;SDS011;22388;52.432;20.662;2023-02-28T03:35:24;37.40;;;17.45;;
36359;SDS011;22388;52.432;20.662;2023-02-28T03:37:53;44.08;;;19.08;;
36359;SDS011;22388;52.432;20.662;2023-02-28T03:40:25;34.72;;;18.48;;
36359;SDS011;22388;52.432;20.662;2023-02-28T03:42:55;36.28;;;16.08;;
36359;SDS011;22388;52.432;20.662;2023-02-28T03:45:25;39.33;;;16.98;;
36359;SDS011;22388;52.432;20.662;2023-02-28T03:50:21;32.60;;;16.40;;
36359;SDS011;22388;52.432;20.662;2023-02-28T03:52:58;34.58;;;16.08;;
36359;SDS011;22388;52.432;20.662;2023-02-28T03:55:32;37.35;;;16.13;;
36359;SDS011;22388;52.432;20.662;2023-02-28T03:58:21;30.60;;;15.13;;
36359;SDS011;22388;52.432;20.662;2023-02-28T04:00:49;33.45;;;16.45;;
36359;SDS011;22388;52.432;20.662;2023-02-28T04:03:19;37.67;;;15.35;;
36359;SDS011;22388;52.432;20.662;2023-02-28T04:05:50;29.15;;;14.85;;
36359;SDS011;22388;52.432;20.662;2023-02-28T04:08:17;34.30;;;15.82;;
36359;SDS011;22388;52.432;20.662;2023-02-28T04:10:43;32.72;;;15.23;;
36359;SDS011;22388;52.432;20.662;2023-02-28T04:13:11;28.38;;;14.00;;
36359;SDS011;22388;52.432;20.662;2023-02-28T04:15:36;31.88;;;15.35;;
36359;SDS011;22388;52.432;20.662;2023-02-28T04:18:02;29.23;;;14.43;;
36359;SDS011;22388;52.432;20.662;2023-02-28T04:20:27;31.73;;;15.25;;
36359;SDS011;22388;52.432;20.662;2023-02-28T04:22:53;28.67;;;14.10;;
36359;SDS011;22388;52.432;20.662;2023-02-28T04:25:18;32.92;;;14.05;;
36359;SDS011;22388;52.432;20.662;2023-02-28T04:27:44;28.52;;;13.25;;
36359;SDS011;22388;52.432;20.662;2023-02-28T04:30:10;30.63;;;15.13;;
36359;SDS011;22388;52.432;20.662;2023-02-28T04:32:36;28.52;;;14.95;;
36359;SDS011;22388;52.432;20.662;2023-02-28T04:35:02;31.50;;;14.63;;
36359;SDS011;22388;52.432;20.662;2023-02-28T04:37:27;29.85;;;14.25;;
36359;SDS011;22388;52.432;20.662;2023-02-28T04:39:54;29.77;;;14.80;;
36359;SDS011;22388;52.432;20.662;2023-02-28T04:42:20;36.22;;;15.32;;
36359;SDS011;22388;52.432;20.662;2023-02-28T04:44:45;34.58;;;15.63;;
36359;SDS011;22388;52.432;20.662;2023-02-28T04:47:12;28.63;;;14.82;;
36359;SDS011;22388;52.432;20.662;2023-02-28T04:49:38;29.95;;;15.77;;
36359;SDS011;22388;52.432;20.662;2023-02-28T04:52:03;32.30;;;15.45;;
36359;SDS011;22388;52.432;20.662;2023-02-28T04:54:29;28.13;;;15.70;;
36359;SDS011;22388;52.432;20.662;2023-02-28T04:56:55;33.00;;;15.10;;
36359;SDS011;22388;52.432;20.662;2023-02-28T04:59:20;29.83;;;15.85;;
36359;SDS011;22388;52.432;20.662;2023-02-28T05:01:47;34.78;;;15.13;;
36359;SDS011;22388;52.432;20.662;2023-02-28T05:04:13;27.40;;;14.88;;
36359;SDS011;22388;52.432;20.662;2023-02-28T05:06:39;36.70;;;15.00;;
36359;SDS011;22388;52.432;20.662;2023-02-28T05:09:04;33.80;;;16.02;;
36359;SDS011;22388;52.432;20.662;2023-02-28T05:11:31;30.92;;;15.65;;
36359;SDS011;22388;52.432;20.662;2023-02-28T05:14:01;29.17;;;15.45;;
36359;SDS011;22388;52.432;20.662;2023-02-28T05:16:32;34.65;;;15.82;;
36359;SDS011;22388;52.432;20.662;2023-02-28T05:18:58;29.50;;;14.68;;
36359;SDS011;22388;52.432;20.662;2023-02-28T05:21:31;33.40;;;15.85;;
36359;SDS011;22388;52.432;20.662;2023-02-28T05:24:00;37.60;;;15.32;;
36359;SDS011;22388;52.432;20.662;2023-02-28T05:26:27;30.58;;;14.80;;
36359;SDS011;22388;52.432;20.662;2023-02-28T05:28:53;32.17;;;16.00;;
36359;SDS011;22388;52.432;20.662;2023-02-28T05:31:19;34.30;;;16.58;;
36359;SDS011;22388;52.432;20.662;2023-02-28T05:33:44;38.33;;;15.60;;
36359;SDS011;22388;52.432;20.662;2023-02-28T05:36:10;34.55;;;16.45;;
36359;SDS011;22388;52.432;20.662;2023-02-28T05:38:36;33.00;;;15.48;;
36359;SDS011;22388;52.432;20.662;2023-02-28T05:41:05;30.23;;;15.63;;
36359;SDS011;22388;52.432;20.662;2023-02-28T05:43:32;34.60;;;16.38;;
36359;SDS011;22388;52.432;20.662;2023-02-28T05:45:57;37.60;;;15.40;;
36359;SDS011;22388;52.432;20.662;2023-02-28T05:48:23;29.27;;;15.57;;
36359;SDS011;22388;52.432;20.662;2023-02-28T05:50:48;31.83;;;15.20;;
36359;SDS011;22388;52.432;20.662;2023-02-28T05:53:14;35.22;;;15.05;;
36359;SDS011;22388;52.432;20.662;2023-02-28T05:55:40;32.08;;;16.45;;
36359;SDS011;22388;52.432;20.662;2023-02-28T05:58:06;31.27;;;15.98;;
36359;SDS011;22388;52.432;20.662;2023-02-28T06:00:32;32.05;;;16.10;;
36359;SDS011;22388;52.432;20.662;2023-02-28T06:02:57;34.38;;;16.77;;
36359;SDS011;22388;52.432;20.662;2023-02-28T06:05:26;28.45;;;15.35;;
36359;SDS011;22388;52.432;20.662;2023-02-28T06:07:53;32.70;;;16.70;;
36359;SDS011;22388;52.432;20.662;2023-02-28T06:10:18;39.90;;;15.65;;
36359;SDS011;22388;52.432;20.662;2023-02-28T06:12:44;33.25;;;15.93;;
36359;SDS011;22388;52.432;20.662;2023-02-28T06:15:13;30.10;;;16.42;;
36359;SDS011;22388;52.432;20.662;2023-02-28T06:17:40;34.55;;;16.38;;
36359;SDS011;22388;52.432;20.662;2023-02-28T06:20:06;44.00;;;16.15;;
36359;SDS011;22388;52.432;20.662;2023-02-28T06:22:34;39.85;;;16.58;;
36359;SDS011;22388;52.432;20.662;2023-02-28T06:25:00;34.70;;;16.60;;
36359;SDS011;22388;52.432;20.662;2023-02-28T06:27:26;37.58;;;17.20;;
36359;SDS011;22388;52.432;20.662;2023-02-28T06:29:55;35.30;;;17.45;;
36359;SDS011;22388;52.432;20.662;2023-02-28T06:32:21;31.35;;;17.33;;
36359;SDS011;22388;52.432;20.662;2023-02-28T06:34:47;30.85;;;16.42;;
36359;SDS011;22388;52.432;20.662;2023-02-28T06:37:12;35.80;;;17.40;;
36359;SDS011;22388;52.432;20.662;2023-02-28T06:39:38;40.08;;;16.85;;
36359;SDS011;22388;52.432;20.662;2023-02-28T06:42:04;32.38;;;16.67;;
36359;SDS011;22388;52.432;20.662;2023-02-28T06:44:29;37.22;;;17.58;;
36359;SDS011;22388;52.432;20.662;2023-02-28T06:47:00;33.63;;;17.48;;
36359;SDS011;22388;52.432;20.662;2023-02-28T06:49:30;39.25;;;18.27;;
36359;SDS011;22388;52.432;20.662;2023-02-28T06:51:56;43.55;;;17.67;;
36359;SDS011;22388;52.432;20.662;2023-02-28T06:54:22;35.63;;;17.60;;
36359;SDS011;22388;52.432;20.662;2023-02-28T06:56:47;31.05;;;17.75;;
36359;SDS011;22388;52.432;20.662;2023-02-28T06:59:13;35.05;;;16.83;;
36359;SDS011;22388;52.432;20.662;2023-02-28T07:01:39;34.72;;;16.80;;
36359;SDS011;22388;52.432;20.662;2023-02-28T07:04:06;33.70;;;16.20;;
36359;SDS011;22388;52.432;20.662;2023-02-28T07:06:32;36.40;;;15.82;;
36359;SDS011;22388;52.432;20.662;2023-02-28T07:08:58;32.38;;;16.58;;
36359;SDS011;22388;52.432;20.662;2023-02-28T07:11:26;31.00;;;15.55;;
36359;SDS011;22388;52.432;20.662;2023-02-28T07:13:55;34.45;;;15.95;;
36359;SDS011;22388;52.432;20.662;2023-02-28T07:16:22;32.35;;;14.68;;
36359;SDS011;22388;52.432;20.662;2023-02-28T07:18:48;27.50;;;14.00;;
36359;SDS011;22388;52.432;20.662;2023-02-28T07:21:14;23.42;;;13.88;;
36359;SDS011;22388;52.432;20.662;2023-02-28T07:23:40;28.58;;;14.93;;
36359;SDS011;22388;52.432;20.662;2023-02-28T07:26:07;31.15;;;15.93;;
36359;SDS011;22388;52.432;20.662;2023-02-28T07:28:37;28.40;;;15.40;;
36359;SDS011;22388;52.432;20.662;2023-02-28T07:31:04;35.45;;;16.00;;
36359;SDS011;22388;52.432;20.662;2023-02-28T07:33:30;31.15;;;16.35;;
36359;SDS011;22388;52.432;20.662;2023-02-28T07:36:00;31.55;;;15.93;;
36359;SDS011;22388;52.432;20.662;2023-02-28T07:38:26;33.35;;;16.02;;
36359;SDS011;22388;52.432;20.662;2023-02-28T07:40:52;27.73;;;14.38;;
36359;SDS011;22388;52.432;20.662;2023-02-28T07:43:17;28.70;;;14.68;;
36359;SDS011;22388;52.432;20.662;2023-02-28T07:45:43;26.70;;;13.07;;
36359;SDS011;22388;52.432;20.662;2023-02-28T07:48:08;26.98;;;13.20;;
36359;SDS011;22388;52.432;20.662;2023-02-28T07:50:35;30.25;;;13.40;;
36359;SDS011;22388;52.432;20.662;2023-02-28T07:53:01;28.90;;;14.25;;
36359;SDS011;22388;52.432;20.662;2023-02-28T07:55:26;30.13;;;13.57;;
36359;SDS011;22388;52.432;20.662;2023-02-28T07:57:52;24.48;;;12.30;;
36359;SDS011;22388;52.432;20.662;2023-02-28T08:00:18;25.75;;;12.48;;
36359;SDS011;22388;52.432;20.662;2023-02-28T08:02:44;23.08;;;12.43;;
36359;SDS011;22388;52.432;20.662;2023-02-28T08:05:10;23.17;;;12.18;;
36359;SDS011;22388;52.432;20.662;2023-02-28T08:07:35;24.70;;;12.77;;
36359;SDS011;22388;52.432;20.662;2023-02-28T08:10:01;22.30;;;12.13;;
36359;SDS011;22388;52.432;20.662;2023-02-28T08:12:26;21.20;;;11.85;;
36359;SDS011;22388;52.432;20.662;2023-02-28T08:14:52;18.92;;;9.18;;
36359;SDS011;22388;52.432;20.662;2023-02-28T08:17:17;14.98;;;8.73;;
36359;SDS011;22388;52.432;20.662;2023-02-28T08:19:46;16.67;;;8.88;;
36359;SDS011;22388;52.432;20.662;2023-02-28T08:22:12;16.00;;;7.82;;
36359;SDS011;22388;52.432;20.662;2023-02-28T08:24:38;17.00;;;8.55;;
36359;SDS011;22388;52.432;20.662;2023-02-28T08:27:04;19.42;;;8.55;;
36359;SDS011;22388;52.432;20.662;2023-02-28T08:29:29;18.77;;;9.43;;
36359;SDS011;22388;52.432;20.662;2023-02-28T08:31:55;17.40;;;9.50;;
36359;SDS011;22388;52.432;20.662;2023-02-28T08:34:21;20.13;;;8.88;;
36359;SDS011;22388;52.432;20.662;2023-02-28T08:36:46;21.42;;;9.13;;
36359;SDS011;22388;52.432;20.662;2023-02-28T08:39:12;18.90;;;8.68;;
36359;SDS011;22388;52.432;20.662;2023-02-28T08:41:37;16.67;;;8.38;;
36359;SDS011;22388;52.432;20.662;2023-02-28T08:44:03;14.60;;;6.75;;
36359;SDS011;22388;52.432;20.662;2023-02-28T08:46:29;13.60;;;7.03;;
36359;SDS011;22388;52.432;20.662;2023-02-28T08:48:55;13.25;;;6.68;;
36359;SDS011;22388;52.432;20.662;2023-02-28T08:51:24;13.82;;;5.65;;
36359;SDS011;22388;52.432;20.662;2023-02-28T08:53:53;12.15;;;6.07;;
36359;SDS011;22388;52.432;20.662;2023-02-28T08:56:28;11.48;;;5.60;;
36359;SDS011;22388;52.432;20.662;2023-02-28T08:58:54;13.60;;;7.60;;
36359;SDS011;22388;52.432;20.662;2023-02-28T09:01:22;17.95;;;7.40;;
36359;SDS011;22388;52.432;20.662;2023-02-28T09:03:49;15.32;;;6.68;;
36359;SDS011;22388;52.432;20.662;2023-02-28T09:06:16;11.40;;;5.90;;
36359;SDS011;22388;52.432;20.662;2023-02-28T09:08:43;13.65;;;6.63;;
36359;SDS011;22388;52.432;20.662;2023-02-28T09:11:09;14.07;;;7.13;;
36359;SDS011;22388;52.432;20.662;2023-02-28T09:13:34;12.57;;;6.30;;
36359;SDS011;22388;52.432;20.662;2023-02-28T09:16:01;14.57;;;6.43;;
36359;SDS011;22388;52.432;20.662;2023-02-28T09:18:28;16.85;;;7.22;;
36359;SDS011;22388;52.432;20.662;2023-02-28T09:20:54;19.15;;;7.15;;
36359;SDS011;22388;52.432;20.662;2023-02-28T09:23:20;14.52;;;6.93;;
36359;SDS011;22388;52.432;20.662;2023-02-28T09:25:50;16.60;;;7.65;;
36359;SDS011;22388;52.432;20.662;2023-02-28T09:28:16;15.57;;;8.15;;
36359;SDS011;22388;52.432;20.662;2023-02-28T09:30:45;15.65;;;7.38;;
36359;SDS011;22388;52.432;20.662;2023-02-28T09:33:15;13.45;;;7.03;;
36359;SDS011;22388;52.432;20.662;2023-02-28T09:35:42;18.63;;;8.70;;
36359;SDS011;22388;52.432;20.662;2023-02-28T09:38:08;15.20;;;7.97;;
36359;SDS011;22388;52.432;20.662;2023-02-28T09:40:35;15.30;;;7.47;;
36359;SDS011;22388;52.432;20.662;2023-02-28T09:43:02;16.80;;;8.63;;
36359;SDS011;22388;52.432;20.662;2023-02-28T09:45:33;18.50;;;8.68;;
36359;SDS011;22388;52.432;20.662;2023-02-28T09:48:06;17.88;;;8.35;;
36359;SDS011;22388;52.432;20.662;2023-02-28T09:50:38;23.83;;;9.38;;
36359;SDS011;22388;52.432;20.662;2023-02-28T09:53:26;17.13;;;8.85;;
36359;SDS011;22388;52.432;20.662;2023-02-28T09:56:20;18.40;;;8.60;;
36359;SDS011;22388;52.432;20.662;2023-02-28T10:01:24;22.70;;;9.43;;
36359;SDS011;22388;52.432;20.662;2023-02-28T10:06:27;21.10;;;8.95;;
36359;SDS011;22388;52.432;20.662;2023-02-28T10:09:00;17.60;;;8.98;;
36359;SDS011;22388;52.432;20.662;2023-02-28T10:11:28;20.63;;;9.23;;
36359;SDS011;22388;52.432;20.662;2023-02-28T10:16:47;17.25;;;8.57;;
36359;SDS011;22388;52.432;20.662;2023-02-28T10:21:59;21.50;;;8.82;;
36359;SDS011;22388;52.432;20.662;2023-02-28T10:24:30;19.20;;;9.35;;
36359;SDS011;22388;52.432;20.662;2023-02-28T10:27:40;16.25;;;8.77;;
36359;SDS011;22388;52.432;20.662;2023-02-28T10:29:49;18.33;;;8.23;;
36359;SDS011;22388;52.432;20.662;2023-02-28T10:32:40;16.48;;;8.02;;
36359;SDS011;22388;52.432;20.662;2023-02-28T10:37:36;16.65;;;8.77;;
36359;SDS011;22388;52.432;20.662;2023-02-28T10:40:04;16.80;;;8.50;;
36359;SDS011;22388;52.432;20.662;2023-02-28T10:42:57;20.23;;;8.38;;
36359;SDS011;22388;52.432;20.662;2023-02-28T10:45:28;21.70;;;8.73;;
36359;SDS011;22388;52.432;20.662;2023-02-28T10:48:01;16.55;;;8.20;;
36359;SDS011;22388;52.432;20.662;2023-02-28T10:53:17;16.83;;;8.43;;
36359;SDS011;22388;52.432;20.662;2023-02-28T11:01:44;17.77;;;8.68;;
36359;SDS011;22388;52.432;20.662;2023-02-28T11:06:56;18.65;;;8.68;;
36359;SDS011;22388;52.432;20.662;2023-02-28T11:09:24;16.63;;;8.35;;
36359;SDS011;22388;52.432;20.662;2023-02-28T11:11:54;16.92;;;9.02;;
36359;SDS011;22388;52.432;20.662;2023-02-28T11:14:27;17.85;;;8.48;;
36359;SDS011;22388;52.432;20.662;2023-02-28T11:16:56;18.52;;;9.13;;
36359;SDS011;22388;52.432;20.662;2023-02-28T11:19:27;17.85;;;9.07;;
36359;SDS011;22388;52.432;20.662;2023-02-28T11:22:03;19.67;;;8.82;;
36359;SDS011;22388;52.432;20.662;2023-02-28T11:24:31;16.83;;;8.48;;
36359;SDS011;22388;52.432;20.662;2023-02-28T11:27:00;15.52;;;7.40;;
36359;SDS011;22388;52.432;20.662;2023-02-28T11:29:29;15.23;;;7.78;;
36359;SDS011;22388;52.432;20.662;2023-02-28T11:34:35;18.33;;;7.90;;
36359;SDS011;22388;52.432;20.662;2023-02-28T11:37:03;16.92;;;7.75;;
36359;SDS011;22388;52.432;20.662;2023-02-28T11:39:30;17.20;;;8.32;;
36359;SDS011;22388;52.432;20.662;2023-02-28T11:42:05;13.98;;;7.55;;
36359;SDS011;22388;52.432;20.662;2023-02-28T11:52:57;16.10;;;8.27;;
36359;SDS011;22388;52.432;20.662;2023-02-28T11:56:03;14.38;;;7.28;;
36359;SDS011;22388;52.432;20.662;2023-02-28T12:17:37;21.23;;;8.35;;
36359;SDS011;22388;52.432;20.662;2023-02-28T12:20:17;14.82;;;7.50;;
36359;SDS011;22388;52.432;20.662;2023-02-28T12:28:43;14.45;;;7.28;;
36359;SDS011;22388;52.432;20.662;2023-02-28T12:31:22;18.67;;;8.45;;
36359;SDS011;22388;52.432;20.662;2023-02-28T12:33:53;18.65;;;9.57;;
36359;SDS011;22388;52.432;20.662;2023-02-28T12:36:22;21.95;;;9.63;;
36359;SDS011;22388;52.432;20.662;2023-02-28T12:42:03;16.83;;;9.25;;
36359;SDS011;22388;52.432;20.662;2023-02-28T12:44:46;19.63;;;9.00;;
36359;SDS011;22388;52.432;20.662;2023-02-28T12:47:16;18.48;;;8.77;;
36359;SDS011;22388;52.432;20.662;2023-02-28T12:52:13;16.58;;;8.63;;
36359;SDS011;22388;52.432;20.662;2023-02-28T12:55:01;21.45;;;10.20;;
36359;SDS011;22388;52.432;20.662;2023-02-28T12:57:36;19.70;;;9.93;;
36359;SDS011;22388;52.432;20.662;2023-02-28T13:00:13;16.83;;;9.15;;
36359;SDS011;22388;52.432;20.662;2023-02-28T13:05:16;17.88;;;9.85;;
36359;SDS011;22388;52.432;20.662;2023-02-28T13:10:48;17.90;;;9.65;;
36359;SDS011;22388;52.432;20.662;2023-02-28T13:13:20;19.60;;;10.10;;
36359;SDS011;22388;52.432;20.662;2023-02-28T13:18:46;16.67;;;10.00;;
36359;SDS011;22388;52.432;20.662;2023-02-28T13:29:00;16.92;;;9.50;;
36359;SDS011;22388;52.432;20.662;2023-02-28T13:31:27;16.90;;;9.38;;
36359;SDS011;22388;52.432;20.662;2023-02-28T13:36:30;20.58;;;9.45;;
36359;SDS011;22388;52.432;20.662;2023-02-28T13:42:22;17.20;;;8.27;;
36359;SDS011;22388;52.432;20.662;2023-02-28T13:47:28;15.45;;;8.20;;
36359;SDS011;22388;52.432;20.662;2023-02-28T13:52:53;19.23;;;8.98;;
36359;SDS011;22388;52.432;20.662;2023-02-28T13:55:45;16.58;;;7.80;;
36359;SDS011;22388;52.432;20.662;2023-02-28T14:03:53;19.50;;;8.27;;
36359;SDS011;22388;52.432;20.662;2023-02-28T14:06:37;17.20;;;8.57;;
36359;SDS011;22388;52.432;20.662;2023-02-28T14:11:56;17.23;;;7.88;;
36359;SDS011;22388;52.432;20.662;2023-02-28T14:16:59;14.20;;;7.65;;
36359;SDS011;22388;52.432;20.662;2023-02-28T14:19:28;15.07;;;8.23;;
36359;SDS011;22388;52.432;20.662;2023-02-28T14:38:14;18.25;;;9.05;;
36359;SDS011;22388;52.432;20.662;2023-02-28T14:40:44;20.05;;;9.25;;
36359;SDS011;22388;52.432;20.662;2023-02-28T14:43:27;21.58;;;10.73;;
36359;SDS011;22388;52.432;20.662;2023-02-28T14:45:54;18.02;;;9.90;;
36359;SDS011;22388;52.432;20.662;2023-02-28T14:48:22;18.35;;;8.70;;
36359;SDS011;22388;52.432;20.662;2023-02-28T14:50:49;18.27;;;9.25;;
36359;SDS011;22388;52.432;20.662;2023-02-28T14:53:18;22.83;;;9.18;;
36359;SDS011;22388;52.432;20.662;2023-02-28T14:55:45;15.82;;;8.63;;
36359;SDS011;22388;52.432;20.662;2023-02-28T14:58:29;16.98;;;8.93;;
36359;SDS011;22388;52.432;20.662;2023-02-28T15:00:57;18.38;;;8.70;;
36359;SDS011;22388;52.432;20.662;2023-02-28T15:03:27;18.23;;;9.02;;
36359;SDS011;22388;52.432;20.662;2023-02-28T15:06:00;17.08;;;8.73;;
36359;SDS011;22388;52.432;20.662;2023-02-28T15:08:28;20.30;;;8.93;;
36359;SDS011;22388;52.432;20.662;2023-02-28T15:13:50;15.82;;;8.77;;
36359;SDS011;22388;52.432;20.662;2023-02-28T15:21:54;17.15;;;9.23;;
36359;SDS011;22388;52.432;20.662;2023-02-28T15:24:41;18.85;;;9.20;;
36359;SDS011;22388;52.432;20.662;2023-02-28T15:27:11;16.48;;;8.55;;
36359;SDS011;22388;52.432;20.662;2023-02-28T15:29:46;17.10;;;9.25;;
36359;SDS011;22388;52.432;20.662;2023-02-28T15:32:32;17.58;;;9.70;;
36359;SDS011;22388;52.432;20.662;2023-02-28T15:40:23;19.38;;;9.07;;
36359;SDS011;22388;52.432;20.662;2023-02-28T15:51:08;17.98;;;8.60;;
36359;SDS011;22388;52.432;20.662;2023-02-28T15:56:26;18.80;;;9.52;;
36359;SDS011;22388;52.432;20.662;2023-02-28T15:58:54;18.50;;;9.00;;
36359;SDS011;22388;52.432;20.662;2023-02-28T16:01:27;15.45;;;8.35;;
36359;SDS011;22388;52.432;20.662;2023-02-28T16:04:11;24.13;;;10.80;;
36359;SDS011;22388;52.432;20.662;2023-02-28T16:06:41;19.02;;;9.88;;
36359;SDS011;22388;52.432;20.662;2023-02-28T16:09:09;24.65;;;11.15;;
36359;SDS011;22388;52.432;20.662;2023-02-28T16:11:43;23.38;;;10.80;;
36359;SDS011;22388;52.432;20.662;2023-02-28T16:14:15;22.98;;;11.18;;
36359;SDS011;22388;52.432;20.662;2023-02-28T16:16:45;23.98;;;11.30;;
36359;SDS011;22388;52.432;20.662;2023-02-28T16:19:12;18.67;;;10.27;;
36359;SDS011;22388;52.432;20.662;2023-02-28T16:21:37;20.13;;;10.20;;
36359;SDS011;22388;52.432;20.662;2023-02-28T16:24:03;24.38;;;10.70;;
36359;SDS011;22388;52.432;20.662;2023-02-28T16:26:29;21.27;;;9.75;;
36359;SDS011;22388;52.432;20.662;2023-02-28T16:28:54;26.83;;;10.70;;
36359;SDS011;22388;52.432;20.662;2023-02-28T16:31:20;26.60;;;11.88;;
36359;SDS011;22388;52.432;20.662;2023-02-28T16:33:46;26.70;;;11.82;;
36359;SDS011;22388;52.432;20.662;2023-02-28T16:36:19;25.63;;;13.07;;
36359;SDS011;22388;52.432;20.662;2023-02-28T16:38:47;30.67;;;13.25;;
36359;SDS011;22388;52.432;20.662;2023-02-28T16:41:14;29.08;;;12.45;;
36359;SDS011;22388;52.432;20.662;2023-02-28T16:43:44;28.08;;;13.48;;
36359;SDS011;22388;52.432;20.662;2023-02-28T16:46:14;50.95;;;14.25;;
36359;SDS011;22388;52.432;20.662;2023-02-28T16:48:42;95.43;;;17.13;;
36359;SDS011;22388;52.432;20.662;2023-02-28T16:51:11;39.28;;;15.75;;
36359;SDS011;22388;52.432;20.662;2023-02-28T16:53:37;37.63;;;15.23;;
36359;SDS011;22388;52.432;20.662;2023-02-28T16:56:03;34.70;;;15.48;;
36359;SDS011;22388;52.432;20.662;2023-02-28T16:58:32;30.77;;;14.63;;
36359;SDS011;22388;52.432;20.662;2023-02-28T17:01:01;34.10;;;15.07;;
36359;SDS011;22388;52.432;20.662;2023-02-28T17:03:29;36.78;;;16.40;;
36359;SDS011;22388;52.432;20.662;2023-02-28T17:05:55;43.85;;;18.58;;
36359;SDS011;22388;52.432;20.662;2023-02-28T17:08:20;43.72;;;18.58;;
36359;SDS011;22388;52.432;20.662;2023-02-28T17:10:46;38.67;;;16.63;;
36359;SDS011;22388;52.432;20.662;2023-02-28T17:13:11;44.58;;;18.80;;
36359;SDS011;22388;52.432;20.662;2023-02-28T17:15:37;43.17;;;18.88;;
36359;SDS011;22388;52.432;20.662;2023-02-28T17:18:03;49.38;;;19.98;;
36359;SDS011;22388;52.432;20.662;2023-02-28T17:20:30;41.90;;;19.83;;
36359;SDS011;22388;52.432;20.662;2023-02-28T17:22:56;40.60;;;17.30;;